createdAt,value
2018-09-17T00:01:47.387Z,5.90
2018-09-17T00:03:51.592Z,7.77
2018-09-17T00:05:55.786Z,7.37
2018-09-17T00:08:00.015Z,9.77
2018-09-17T00:10:04.318Z,8.50
2018-09-17T00:12:08.473Z,10.17
2018-09-17T00:14:12.733Z,9.63
2018-09-17T00:16:17.631Z,10.40
2018-09-17T00:18:21.781Z,7.80
2018-09-17T00:20:25.992Z,15.43
2018-09-17T00:22:30.282Z,7.90
2018-09-17T00:24:34.510Z,10.17
2018-09-17T00:26:38.694Z,12.17
2018-09-17T00:28:42.933Z,11.50
2018-09-17T00:30:47.183Z,8.60
2018-09-17T00:32:51.358Z,11.70
2018-09-17T00:34:55.570Z,10.67
2018-09-17T00:36:59.818Z,11.37
2018-09-17T00:39:05.482Z,12.00
2018-09-17T00:41:10.068Z,12.43
2018-09-17T00:43:14.209Z,11.23
2018-09-17T00:45:18.372Z,12.80
2018-09-17T00:47:22.580Z,6.47
2018-09-17T00:49:26.805Z,10.37
2018-09-17T00:51:31.084Z,12.67
2018-09-17T00:53:35.358Z,9.50
2018-09-17T00:55:39.544Z,8.70
2018-09-17T00:57:43.811Z,11.10
2018-09-17T00:59:47.982Z,20.27
2018-09-17T01:01:52.279Z,13.93
2018-09-17T01:03:56.474Z,13.87
2018-09-17T01:06:00.739Z,7.70
2018-09-17T01:08:04.994Z,16.87
2018-09-17T01:10:09.499Z,8.10
2018-09-17T01:12:15.146Z,9.17
2018-09-17T01:14:19.335Z,9.97
2018-09-17T01:16:23.630Z,9.77
2018-09-17T01:18:27.786Z,9.23
2018-09-17T01:20:32.016Z,10.63
2018-09-17T01:22:36.234Z,11.50
2018-09-17T01:24:40.411Z,8.67
2018-09-17T01:26:44.606Z,10.53
2018-09-17T01:28:48.798Z,13.63
2018-09-17T01:30:52.997Z,12.80
2018-09-17T01:32:57.149Z,9.07
2018-09-17T01:35:01.374Z,11.50
2018-09-17T01:37:05.586Z,8.37
2018-09-17T01:39:11.059Z,11.27
2018-09-17T01:41:15.401Z,11.30
2018-09-17T01:43:19.796Z,10.07
2018-09-17T01:45:45.730Z,11.87
2018-09-17T01:47:52.510Z,12.63
2018-09-17T01:49:56.763Z,7.97
2018-09-17T01:52:00.926Z,13.37
2018-09-17T01:54:05.115Z,11.40
2018-09-17T01:56:09.342Z,16.13
2018-09-17T01:58:13.647Z,12.47
2018-09-17T02:00:17.909Z,8.27
2018-09-17T02:02:22.154Z,12.07
2018-09-17T02:04:26.312Z,12.00
2018-09-17T02:06:30.534Z,8.90
2018-09-17T02:08:34.778Z,10.10
2018-09-17T02:10:38.955Z,6.77
2018-09-17T02:12:43.132Z,10.43
2018-09-17T02:14:47.340Z,11.57
2018-09-17T02:16:51.559Z,14.43
2018-09-17T02:18:55.901Z,10.10
2018-09-17T02:21:00.148Z,9.27
2018-09-17T02:23:04.329Z,10.83
2018-09-17T02:25:08.603Z,7.33
2018-09-17T02:27:12.855Z,10.10
2018-09-17T02:29:17.024Z,7.07
2018-09-17T02:31:21.323Z,8.87
2018-09-17T02:33:25.950Z,8.10
2018-09-17T02:35:30.160Z,11.97
2018-09-17T02:37:34.443Z,9.13
2018-09-17T02:39:39.192Z,6.93
2018-09-17T02:41:43.423Z,7.17
2018-09-17T02:43:48.904Z,13.27
2018-09-17T02:45:53.729Z,8.63
2018-09-17T02:47:57.958Z,9.20
2018-09-17T02:50:02.191Z,6.63
2018-09-17T02:52:07.100Z,7.23
2018-09-17T02:54:11.346Z,7.73
2018-09-17T02:56:15.694Z,13.07
2018-09-17T02:58:20.742Z,11.00
2018-09-17T03:00:25.594Z,10.23
2018-09-17T03:02:30.478Z,6.50
2018-09-17T03:04:35.601Z,7.43
2018-09-17T03:06:40.901Z,8.67
2018-09-17T03:08:46.041Z,5.67
2018-09-17T03:10:50.669Z,10.07
2018-09-17T03:12:54.929Z,8.07
2018-09-17T03:15:04.163Z,5.93
2018-09-17T03:17:15.657Z,12.33
2018-09-17T03:19:19.778Z,10.03
2018-09-17T03:21:24.030Z,7.93
2018-09-17T03:23:28.214Z,5.80
2018-09-17T03:25:32.344Z,7.07
2018-09-17T03:27:36.616Z,7.60
2018-09-17T03:29:40.771Z,5.50
2018-09-17T03:31:44.958Z,9.67
2018-09-17T03:33:49.270Z,9.37
2018-09-17T03:35:53.515Z,10.47
2018-09-17T03:38:04.647Z,8.77
2018-09-17T03:40:08.909Z,11.07
2018-09-17T03:42:13.102Z,7.07
2018-09-17T03:44:17.476Z,11.93
2018-09-17T03:46:21.794Z,8.60
2018-09-17T03:48:25.943Z,6.77
2018-09-17T03:50:30.182Z,7.73
2018-09-17T03:52:34.367Z,14.33
2018-09-17T03:54:38.570Z,11.03
2018-09-17T03:56:42.883Z,8.40
2018-09-17T03:58:47.118Z,9.50
2018-09-17T04:00:51.300Z,8.80
2018-09-17T04:02:55.510Z,10.53
2018-09-17T04:04:59.678Z,9.70
2018-09-17T04:07:04.003Z,9.33
2018-09-17T04:09:08.699Z,8.53
2018-09-17T04:11:12.953Z,6.63
2018-09-17T04:13:17.348Z,5.10
2018-09-17T04:15:21.587Z,7.43
2018-09-17T04:17:25.880Z,8.17
2018-09-17T04:19:30.036Z,7.23
2018-09-17T04:21:34.258Z,11.20
2018-09-17T04:23:39.219Z,5.80
2018-09-17T04:25:43.407Z,10.50
2018-09-17T04:27:47.636Z,7.03
2018-09-17T04:29:51.812Z,7.97
2018-09-17T04:31:55.988Z,9.80
2018-09-17T04:34:00.240Z,9.77
2018-09-17T04:36:04.503Z,7.47
2018-09-17T04:38:08.694Z,10.40
2018-09-17T04:40:12.884Z,10.30
2018-09-17T04:42:17.081Z,11.20
2018-09-17T04:44:21.313Z,6.63
2018-09-17T04:46:25.464Z,9.57
2018-09-17T04:48:30.108Z,9.40
2018-09-17T04:50:34.357Z,7.60
2018-09-17T04:52:38.588Z,7.53
2018-09-17T04:54:42.883Z,10.93
2018-09-17T04:56:47.087Z,6.70
2018-09-17T04:58:51.532Z,10.93
2018-09-17T05:00:55.713Z,13.20
2018-09-17T05:02:59.826Z,6.17
2018-09-17T05:05:04.088Z,6.47
2018-09-17T05:07:08.392Z,7.73
2018-09-17T05:09:12.558Z,7.37
2018-09-17T05:11:16.739Z,5.20
2018-09-17T05:13:21.013Z,9.13
2018-09-17T05:15:25.187Z,11.23
2018-09-17T05:17:29.383Z,6.00
2018-09-17T05:19:34.648Z,6.17
2018-09-17T05:21:39.121Z,9.50
2018-09-17T05:23:44.025Z,6.20
2018-09-17T05:25:48.351Z,6.07
2018-09-17T05:27:52.675Z,7.63
2018-09-17T05:29:57.838Z,5.67
2018-09-17T05:32:03.045Z,11.63
2018-09-17T05:34:07.385Z,5.60
2018-09-17T05:36:11.564Z,5.97
2018-09-17T05:38:15.805Z,6.07
2018-09-17T05:40:20.064Z,7.90
2018-09-17T05:42:24.243Z,9.03
2018-09-17T05:44:28.883Z,7.47
2018-09-17T05:46:33.379Z,5.23
2018-09-17T05:48:37.576Z,7.00
2018-09-17T05:50:41.811Z,4.73
2018-09-17T05:52:46.042Z,8.47
2018-09-17T05:54:50.205Z,7.17
2018-09-17T05:56:54.379Z,6.53
2018-09-17T05:58:58.529Z,5.93
2018-09-17T06:01:02.863Z,8.03
2018-09-17T06:03:07.183Z,6.30
2018-09-17T06:05:11.395Z,8.97
2018-09-17T06:07:15.584Z,7.23
2018-09-17T06:09:19.775Z,6.93
2018-09-17T06:11:24.086Z,6.67
2018-09-17T06:13:28.244Z,6.40
2018-09-17T06:15:32.427Z,7.80
2018-09-17T06:17:36.680Z,5.80
2018-09-17T06:19:40.878Z,7.80
2018-09-17T06:21:45.064Z,12.70
2018-09-17T06:23:49.235Z,8.20
2018-09-17T06:25:53.426Z,9.40
2018-09-17T06:27:57.580Z,7.80
2018-09-17T06:30:01.837Z,4.67
2018-09-17T06:32:06.018Z,7.13
2018-09-17T06:34:10.278Z,6.50
2018-09-17T06:36:14.454Z,8.80
2018-09-17T06:38:18.631Z,10.20
2018-09-17T06:40:22.845Z,12.80
2018-09-17T06:42:27.006Z,10.53
2018-09-17T06:44:31.306Z,9.43
2018-09-17T06:46:35.491Z,10.63
2018-09-17T06:48:39.660Z,7.57
2018-09-17T06:50:43.972Z,11.40
2018-09-17T06:52:48.209Z,23.13
2018-09-17T06:54:52.398Z,12.43
2018-09-17T06:56:56.573Z,7.27
2018-09-17T06:59:00.806Z,11.13
2018-09-17T07:01:05.003Z,12.30
2018-09-17T07:03:09.234Z,13.20
2018-09-17T07:05:13.390Z,6.87
2018-09-17T07:07:17.583Z,13.93
2018-09-17T07:09:21.799Z,8.83
2018-09-17T07:11:26.040Z,8.07
2018-09-17T07:13:30.230Z,7.70
2018-09-17T07:15:34.439Z,11.60
2018-09-17T07:17:38.947Z,7.73
2018-09-17T07:19:43.117Z,6.80
2018-09-17T07:21:47.288Z,9.23
2018-09-17T07:23:51.502Z,5.87
2018-09-17T07:25:55.681Z,7.20
2018-09-17T07:27:59.866Z,9.77
2018-09-17T07:30:04.143Z,8.10
2018-09-17T07:32:08.497Z,6.77
2018-09-17T07:34:13.022Z,7.83
2018-09-17T07:36:17.299Z,6.97
2018-09-17T07:38:21.492Z,10.57
2018-09-17T07:40:25.711Z,15.30
2018-09-17T07:42:29.940Z,7.10
2018-09-17T07:44:34.134Z,8.73
2018-09-17T07:46:38.315Z,7.87
2018-09-17T07:48:42.659Z,7.67
2018-09-17T07:50:46.998Z,15.83
2018-09-17T07:52:51.243Z,8.93
2018-09-17T07:54:55.635Z,8.60
2018-09-17T07:57:00.049Z,6.90
2018-09-17T07:59:04.298Z,8.73
2018-09-17T08:01:08.771Z,8.07
2018-09-17T08:03:12.957Z,14.43
2018-09-17T08:05:17.476Z,8.40
2018-09-17T08:07:21.694Z,15.13
2018-09-17T08:09:25.898Z,13.33
2018-09-17T08:11:30.098Z,8.67
2018-09-17T08:13:34.345Z,14.43
2018-09-17T08:15:38.575Z,13.90
2018-09-17T08:17:47.242Z,10.17
2018-09-17T08:19:52.628Z,15.33
2018-09-17T08:21:58.885Z,13.67
2018-09-17T08:24:03.151Z,17.10
2018-09-17T08:26:07.422Z,14.97
2018-09-17T08:28:11.614Z,16.67
2018-09-17T08:30:16.210Z,9.47
2018-09-17T08:32:20.359Z,16.37
2018-09-17T08:34:24.512Z,17.07
2018-09-17T08:36:29.137Z,11.70
2018-09-17T08:38:33.318Z,10.43
2018-09-17T08:40:37.521Z,13.23
2018-09-17T08:42:41.784Z,13.63
2018-09-17T08:44:45.976Z,14.50
2018-09-17T08:46:50.182Z,16.10
2018-09-17T08:48:54.349Z,18.77
2018-09-17T08:50:58.546Z,15.80
2018-09-17T08:53:02.786Z,14.47
2018-09-17T08:55:11.127Z,15.20
2018-09-17T08:57:20.446Z,10.83
2018-09-17T08:59:29.856Z,14.70
2018-09-17T09:01:39.080Z,11.50
2018-09-17T09:03:48.418Z,11.73
2018-09-17T09:05:57.683Z,11.40
2018-09-17T09:08:01.932Z,14.47
2018-09-17T09:10:11.680Z,10.18
2018-09-17T09:12:18.962Z,10.73
2018-09-17T09:14:28.395Z,10.77
2018-09-17T09:16:32.632Z,9.40
2018-09-17T09:18:36.878Z,8.00
2018-09-17T09:20:41.069Z,9.30
2018-09-17T09:22:45.282Z,8.40
2018-09-17T09:24:49.562Z,8.10
2018-09-17T09:26:53.798Z,13.27
2018-09-17T09:28:58.037Z,10.20
2018-09-17T09:31:02.286Z,9.00
2018-09-17T09:33:06.460Z,9.73
2018-09-17T09:35:10.793Z,7.33
2018-09-17T09:37:14.990Z,7.90
2018-09-17T09:39:19.206Z,13.57
2018-09-17T09:41:23.435Z,7.77
2018-09-17T09:43:27.628Z,8.93
2018-09-17T09:45:31.845Z,5.30
2018-09-17T09:47:36.046Z,6.17
2018-09-17T09:49:40.278Z,11.47
2018-09-17T09:51:44.475Z,4.87
2018-09-17T09:53:48.671Z,6.07
2018-09-17T09:55:52.886Z,9.67
2018-09-17T09:57:57.067Z,6.77
2018-09-17T10:00:01.267Z,5.17
2018-09-17T10:02:10.610Z,5.97
2018-09-17T10:04:19.931Z,7.83
2018-09-17T10:06:24.409Z,8.30
2018-09-17T10:08:28.695Z,7.77
2018-09-17T10:10:37.923Z,5.80
2018-09-17T10:12:47.202Z,5.10
2018-09-17T10:14:56.559Z,6.30
2018-09-17T10:17:05.870Z,6.03
2018-09-17T10:19:15.066Z,6.83
2018-09-17T10:21:19.314Z,8.80
2018-09-17T10:23:23.494Z,5.17
2018-09-17T10:25:27.651Z,7.10
2018-09-17T10:27:31.878Z,5.50
2018-09-17T10:29:36.054Z,6.17
2018-09-17T10:31:40.254Z,5.10
2018-09-17T10:33:44.494Z,3.80
2018-09-17T10:35:48.849Z,4.37
2018-09-17T10:37:53.076Z,4.37
2018-09-17T10:39:57.348Z,3.40
2018-09-17T10:42:01.525Z,6.90
2018-09-17T10:44:05.807Z,4.27
2018-09-17T10:46:09.965Z,4.77
2018-09-17T10:48:14.193Z,4.17
2018-09-17T10:50:18.390Z,3.93
2018-09-17T10:52:22.552Z,5.13
2018-09-17T10:54:26.774Z,5.23
2018-09-17T10:56:30.966Z,3.77
2018-09-17T10:58:35.178Z,6.83
2018-09-17T11:00:39.367Z,5.97
2018-09-17T11:02:43.499Z,3.73
2018-09-17T11:04:47.688Z,3.13
2018-09-17T11:06:51.925Z,4.97
2018-09-17T11:08:56.260Z,4.67
2018-09-17T11:11:00.433Z,4.03
2018-09-17T11:13:04.652Z,6.87
2018-09-17T11:15:10.153Z,7.77
2018-09-17T11:17:14.400Z,2.67
2018-09-17T11:19:18.701Z,3.33
2018-09-17T11:21:22.895Z,2.53
2018-09-17T11:23:27.066Z,3.60
2018-09-17T11:25:31.246Z,5.47
2018-09-17T11:27:35.384Z,4.70
2018-09-17T11:29:39.566Z,2.80
2018-09-17T11:31:43.792Z,2.10
2018-09-17T11:33:48.713Z,3.47
2018-09-17T11:35:52.911Z,4.63
2018-09-17T11:37:57.167Z,2.57
2018-09-17T11:40:01.519Z,5.07
2018-09-17T11:42:05.818Z,3.73
2018-09-17T11:44:10.280Z,3.17
2018-09-17T11:46:15.498Z,2.70
2018-09-17T11:48:19.695Z,3.40
2018-09-17T11:50:23.977Z,3.53
2018-09-17T11:52:28.184Z,2.87
2018-09-17T11:54:32.343Z,3.47
2018-09-17T11:56:36.559Z,3.77
2018-09-17T11:58:40.759Z,3.57
2018-09-17T12:00:50.136Z,2.97
2018-09-17T12:02:59.437Z,4.20
2018-09-17T12:05:08.976Z,3.60
2018-09-17T12:07:18.288Z,3.00
2018-09-17T12:09:22.601Z,2.20
2018-09-17T12:11:26.744Z,5.80
2018-09-17T12:13:30.998Z,2.00
2018-09-17T12:15:39.241Z,5.50
2018-09-17T12:17:43.444Z,5.17
2018-09-17T12:19:47.723Z,2.70
2018-09-17T12:21:51.975Z,3.40
2018-09-17T12:23:56.257Z,2.67
2018-09-17T12:26:00.478Z,5.43
2018-09-17T12:28:04.803Z,2.57
2018-09-17T12:30:09.051Z,5.83
2018-09-17T12:32:13.258Z,4.03
2018-09-17T12:34:17.432Z,3.00
2018-09-17T12:36:21.687Z,2.40
2018-09-17T12:38:25.916Z,2.87
2018-09-17T12:40:30.130Z,4.40
2018-09-17T12:42:34.386Z,3.30
2018-09-17T12:44:38.589Z,4.10
2018-09-17T12:46:42.812Z,3.30
2018-09-17T12:48:47.038Z,2.83
2018-09-17T12:50:51.276Z,2.83
2018-09-17T12:52:55.433Z,2.77
2018-09-17T12:54:59.601Z,4.63
2018-09-17T12:57:03.859Z,4.00
2018-09-17T12:59:08.082Z,4.67
2018-09-17T13:01:12.305Z,4.50
2018-09-17T13:03:16.546Z,7.23
2018-09-17T13:05:20.822Z,4.27
2018-09-17T13:07:25.021Z,3.70
2018-09-17T13:09:29.159Z,2.50
2018-09-17T13:11:33.386Z,3.60
2018-09-17T13:13:39.070Z,4.43
2018-09-17T13:15:48.402Z,2.17
2018-09-17T13:17:52.680Z,1.80
2018-09-17T13:19:56.922Z,2.67
2018-09-17T13:22:01.130Z,2.63
2018-09-17T13:24:07.156Z,2.93
2018-09-17T13:26:12.443Z,11.37
2018-09-17T13:28:21.642Z,2.83
2018-09-17T13:30:25.973Z,6.97
2018-09-17T13:32:31.162Z,2.60
2018-09-17T13:34:35.388Z,5.37
2018-09-17T13:36:39.592Z,2.73
2018-09-17T13:38:43.863Z,3.53
2018-09-17T13:40:48.106Z,3.97
2018-09-17T13:42:52.330Z,5.03
2018-09-17T13:44:56.517Z,3.43
2018-09-17T13:47:00.710Z,3.87
2018-09-17T13:49:04.943Z,5.70
2018-09-17T13:51:09.159Z,5.93
2018-09-17T13:53:13.442Z,2.00
2018-09-17T13:55:27.060Z,3.70
2018-09-17T13:57:31.565Z,3.70
2018-09-17T13:59:35.781Z,2.73
2018-09-17T14:01:40.034Z,3.20
2018-09-17T14:03:44.229Z,6.07
2018-09-17T14:05:48.826Z,2.93
2018-09-17T14:07:53.025Z,2.97
2018-09-17T14:09:57.285Z,5.20
2018-09-17T14:12:01.458Z,2.97
2018-09-17T14:14:05.798Z,4.77
2018-09-17T14:16:10.577Z,3.07
2018-09-17T14:18:14.738Z,2.73
2018-09-17T14:20:19.042Z,1.57
2018-09-17T14:22:23.195Z,3.90
2018-09-17T14:24:27.431Z,4.90
2018-09-17T14:26:31.657Z,2.93
2018-09-17T14:28:35.800Z,4.00
2018-09-17T14:30:40.118Z,2.70
2018-09-17T14:32:49.433Z,1.90
2018-09-17T14:34:53.670Z,4.83
2018-09-17T14:36:57.848Z,7.47
2018-09-17T14:39:02.118Z,1.87
2018-09-17T14:41:06.704Z,2.20
2018-09-17T14:43:10.866Z,4.80
2018-09-17T14:45:15.110Z,7.17
2018-09-17T14:47:19.379Z,2.93
2018-09-17T14:49:23.602Z,3.83
2018-09-17T14:51:27.840Z,4.07
2018-09-17T14:53:32.032Z,4.20
2018-09-17T14:55:36.265Z,4.23
2018-09-17T14:57:40.498Z,4.17
2018-09-17T14:59:44.697Z,7.30
2018-09-17T15:01:48.903Z,3.30
2018-09-17T15:03:53.104Z,2.70
2018-09-17T15:05:57.406Z,2.17
2018-09-17T15:08:01.753Z,2.00
2018-09-17T15:10:07.071Z,5.30
2018-09-17T15:12:11.228Z,3.43
2018-09-17T15:14:15.515Z,2.03
2018-09-17T15:16:19.808Z,2.30
2018-09-17T15:18:24.272Z,4.67
2018-09-17T15:20:28.795Z,4.40
2018-09-17T15:22:33.024Z,4.63
2018-09-17T15:24:37.233Z,3.40
2018-09-17T15:26:41.653Z,6.47
2018-09-17T15:28:45.849Z,4.00
2018-09-17T15:30:50.150Z,2.00
2018-09-17T15:32:54.263Z,4.13
2018-09-17T15:34:58.477Z,2.97
2018-09-17T15:37:02.718Z,5.10
2018-09-17T15:39:10.300Z,3.80
2018-09-17T15:41:14.860Z,3.30
2018-09-17T15:43:18.793Z,2.60
2018-09-17T15:45:22.994Z,2.63
2018-09-17T15:47:27.208Z,3.03
2018-09-17T15:49:31.431Z,4.53
2018-09-17T15:51:35.710Z,4.63
2018-09-17T15:53:39.926Z,2.97
2018-09-17T15:55:44.340Z,4.27
2018-09-17T15:57:48.543Z,1.77
2018-09-17T15:59:52.676Z,3.07
2018-09-17T16:01:56.839Z,1.90
2018-09-17T16:04:01.030Z,3.40
2018-09-17T16:06:05.220Z,4.23
2018-09-17T16:08:09.428Z,3.43
2018-09-17T16:10:13.674Z,3.17
2018-09-17T16:12:17.851Z,2.63
2018-09-17T16:14:22.131Z,1.80
2018-09-17T16:16:26.306Z,2.80
2018-09-17T16:18:30.507Z,5.93
2018-09-17T16:20:34.717Z,3.17
2018-09-17T16:22:38.889Z,2.93
2018-09-17T16:24:43.454Z,2.50
2018-09-17T16:26:47.637Z,4.20
2018-09-17T16:28:51.813Z,2.57
2018-09-17T16:30:56.014Z,5.00
2018-09-17T16:33:00.187Z,4.93
2018-09-17T16:35:04.436Z,2.93
2018-09-17T16:37:08.590Z,4.10
2018-09-17T16:39:14.809Z,4.07
2018-09-17T16:41:19.110Z,2.00
2018-09-17T16:43:23.246Z,3.20
2018-09-17T16:45:27.444Z,4.83
2018-09-17T16:47:31.930Z,2.07
2018-09-17T16:49:36.112Z,2.87
2018-09-17T16:51:40.282Z,3.07
2018-09-17T16:53:44.542Z,3.83
2018-09-17T16:55:48.746Z,3.13
2018-09-17T16:57:53.225Z,1.90
2018-09-17T16:59:57.402Z,5.53
2018-09-17T17:02:01.545Z,3.30
2018-09-17T17:04:05.790Z,5.00
2018-09-17T17:06:09.985Z,4.13
2018-09-17T17:08:14.232Z,3.90
2018-09-17T17:10:18.471Z,3.47
2018-09-17T17:12:22.703Z,3.57
2018-09-17T17:14:27.192Z,2.00
2018-09-17T17:16:31.367Z,2.90
2018-09-17T17:18:35.716Z,4.67
2018-09-17T17:20:40.030Z,3.03
2018-09-17T17:22:44.238Z,4.33
2018-09-17T17:24:48.419Z,3.30
2018-09-17T17:26:52.690Z,2.67
2018-09-17T17:28:56.928Z,4.67
2018-09-17T17:31:01.175Z,4.57
2018-09-17T17:33:05.554Z,4.57
2018-09-17T17:35:09.817Z,4.00
2018-09-17T17:37:14.042Z,3.53
2018-09-17T17:39:18.388Z,8.10
2018-09-17T17:41:22.567Z,4.10
2018-09-17T17:43:26.758Z,4.13
2018-09-17T17:45:30.976Z,6.87
2018-09-17T17:47:35.124Z,6.67
2018-09-17T17:49:42.260Z,5.40
2018-09-17T17:51:46.571Z,5.97
2018-09-17T17:53:50.744Z,5.37
2018-09-17T17:55:54.924Z,9.03
2018-09-17T17:57:59.167Z,6.23
2018-09-17T18:00:03.379Z,5.73
2018-09-17T18:02:07.560Z,7.33
2018-09-17T18:04:11.859Z,4.67
2018-09-17T18:06:16.007Z,7.07
2018-09-17T18:08:20.204Z,7.00
2018-09-17T18:10:24.413Z,7.13
2018-09-17T18:12:28.783Z,9.07
2018-09-17T18:14:32.971Z,8.27
2018-09-17T18:16:37.231Z,9.17
2018-09-17T18:18:41.371Z,8.07
2018-09-17T18:20:45.919Z,9.57
2018-09-17T18:22:50.124Z,11.23
2018-09-17T18:24:54.394Z,10.97
2018-09-17T18:26:58.721Z,10.53
2018-09-17T18:29:02.844Z,12.27
2018-09-17T18:31:07.106Z,13.80
2018-09-17T18:33:11.418Z,11.47
2018-09-17T18:35:15.654Z,10.10
2018-09-17T18:37:19.859Z,12.83
2018-09-17T18:39:24.194Z,15.27
2018-09-17T18:41:28.494Z,12.43
2018-09-17T18:43:32.732Z,14.63
2018-09-17T18:45:36.962Z,12.90
2018-09-17T18:47:41.356Z,12.23
2018-09-17T18:49:45.571Z,12.37
2018-09-17T18:51:49.682Z,9.20
2018-09-17T18:53:53.868Z,13.53
2018-09-17T18:55:58.072Z,12.07
2018-09-17T18:58:02.312Z,16.70
2018-09-17T19:00:07.617Z,14.87
2018-09-17T19:02:11.762Z,11.10
2018-09-17T19:04:15.939Z,10.90
2018-09-17T19:06:20.264Z,11.00
2018-09-17T19:08:24.405Z,13.00
2018-09-17T19:10:28.614Z,11.20
2018-09-17T19:12:32.915Z,12.47
2018-09-17T19:14:42.132Z,10.97
2018-09-17T19:16:54.301Z,10.73
2018-09-17T19:18:58.531Z,11.93
2018-09-17T19:21:02.984Z,9.63
2018-09-17T19:23:12.150Z,11.67
2018-09-17T19:25:16.734Z,12.50
2018-09-17T19:27:20.944Z,16.93
2018-09-17T19:29:25.191Z,15.03
2018-09-17T19:31:29.391Z,16.27
2018-09-17T19:33:33.615Z,15.83
2018-09-17T19:35:37.774Z,14.47
2018-09-17T19:37:47.216Z,17.87
2018-09-17T19:39:56.659Z,14.60
2018-09-17T19:42:00.984Z,11.47
2018-09-17T19:44:05.203Z,9.53
2018-09-17T19:46:14.713Z,7.50
2018-09-17T19:48:18.925Z,8.17
2018-09-17T19:50:28.140Z,10.73
2018-09-17T19:52:32.343Z,10.87
2018-09-17T19:54:36.560Z,12.70
2018-09-17T19:56:41.909Z,11.40
2018-09-17T19:58:51.389Z,10.57
2018-09-17T20:00:55.747Z,12.27
2018-09-17T20:02:59.921Z,11.60
2018-09-17T20:05:10.506Z,12.37
2018-09-17T20:07:14.700Z,12.33
2018-09-17T20:09:18.961Z,16.77
2018-09-17T20:11:23.213Z,14.13
2018-09-17T20:13:27.484Z,15.63
2018-09-17T20:15:31.902Z,17.13
2018-09-17T20:17:36.361Z,16.43
2018-09-17T20:19:40.590Z,20.10
2018-09-17T20:21:44.771Z,16.73
2018-09-17T20:23:48.971Z,15.30
2018-09-17T20:25:53.205Z,19.07
2018-09-17T20:27:57.317Z,12.70
2018-09-17T20:30:01.501Z,14.80
2018-09-17T20:32:06.492Z,12.77
2018-09-17T20:34:18.767Z,15.40
2018-09-17T20:36:23.096Z,12.10
2018-09-17T20:38:27.540Z,13.07
2018-09-17T20:40:31.902Z,11.60
2018-09-17T20:42:36.318Z,7.23
2018-09-17T20:44:44.522Z,9.97
2018-09-17T20:46:48.706Z,11.53
2018-09-17T20:48:53.163Z,8.40
2018-09-17T20:51:01.145Z,9.50
2018-09-17T20:53:08.106Z,11.67
2018-09-17T20:55:12.336Z,14.43
2018-09-17T20:57:16.535Z,10.43
2018-09-17T20:59:21.127Z,11.30
2018-09-17T21:01:27.275Z,11.93
2018-09-17T21:03:31.382Z,9.67
2018-09-17T21:05:38.461Z,13.07
2018-09-17T21:07:42.627Z,11.00
2018-09-17T21:09:46.776Z,11.30
2018-09-17T21:11:53.871Z,9.93
2018-09-17T21:13:58.112Z,13.27
2018-09-17T21:16:05.320Z,10.57
2018-09-17T21:18:10.176Z,11.33
2018-09-17T21:20:14.962Z,10.83
2018-09-17T21:22:19.715Z,9.83
2018-09-17T21:24:24.336Z,11.33
2018-09-17T21:26:28.520Z,11.47
2018-09-17T21:28:32.987Z,8.77
2018-09-17T21:30:37.162Z,10.80
2018-09-17T21:32:41.324Z,9.40
2018-09-17T21:34:53.444Z,8.67
2018-09-17T21:36:57.915Z,12.40
2018-09-17T21:39:02.081Z,11.27
2018-09-17T21:41:06.478Z,10.53
2018-09-17T21:43:10.838Z,9.67
2018-09-17T21:45:14.945Z,8.80
2018-09-17T21:47:19.146Z,11.57
2018-09-17T21:49:23.806Z,12.50
2018-09-17T21:51:27.989Z,10.20
2018-09-17T21:53:35.332Z,10.07
2018-09-17T21:55:39.634Z,10.00
2018-09-17T21:57:46.546Z,10.20
2018-09-17T21:59:50.722Z,8.80
2018-09-17T22:01:56.789Z,8.77
2018-09-17T22:04:01.123Z,10.57
2018-09-17T22:06:05.297Z,12.70
2018-09-17T22:08:12.674Z,7.23
2018-09-17T22:10:17.317Z,8.17
2018-09-17T22:12:22.422Z,7.80
2018-09-17T22:14:27.018Z,10.30
2018-09-17T22:16:31.223Z,9.10
2018-09-17T22:18:35.563Z,8.73
2018-09-17T22:20:42.499Z,7.93
2018-09-17T22:22:46.634Z,10.00
2018-09-17T22:24:50.810Z,7.27
2018-09-17T22:26:58.514Z,7.80
2018-09-17T22:29:02.939Z,8.17
2018-09-17T22:31:07.453Z,6.43
2018-09-17T22:33:11.656Z,6.83
2018-09-17T22:35:25.765Z,7.07
2018-09-17T22:37:30.643Z,7.27
2018-09-17T22:39:42.957Z,7.23
2018-09-17T22:41:47.511Z,7.33
2018-09-17T22:43:54.621Z,9.90
2018-09-17T22:45:58.883Z,7.27
2018-09-17T22:48:03.134Z,8.63
2018-09-17T22:50:09.781Z,5.40
2018-09-17T22:52:14.218Z,7.17
2018-09-17T22:54:18.431Z,7.10
2018-09-17T22:56:22.598Z,8.57
2018-09-17T22:58:26.781Z,6.40
2018-09-17T23:00:35.867Z,8.63
2018-09-17T23:02:40.023Z,8.40
2018-09-17T23:04:44.235Z,7.87
2018-09-17T23:06:48.517Z,6.53
2018-09-17T23:08:52.794Z,6.23
2018-09-17T23:10:56.948Z,5.97
2018-09-17T23:13:01.147Z,6.20
2018-09-17T23:15:07.127Z,7.10
2018-09-17T23:17:11.268Z,7.23
2018-09-17T23:19:23.526Z,7.00
2018-09-17T23:21:27.914Z,7.13
2018-09-17T23:23:32.142Z,6.37
2018-09-17T23:25:36.389Z,6.87
2018-09-17T23:27:40.775Z,7.83
2018-09-17T23:29:44.902Z,9.80
2018-09-17T23:31:49.096Z,5.93
2018-09-17T23:33:53.284Z,5.73
2018-09-17T23:35:57.442Z,8.53
2018-09-17T23:38:01.702Z,10.73
2018-09-17T23:40:05.915Z,9.77
2018-09-17T23:42:10.128Z,10.70
2018-09-17T23:44:14.355Z,9.00
2018-09-17T23:46:18.571Z,7.87
2018-09-17T23:48:22.761Z,12.20
2018-09-17T23:50:26.897Z,9.40
2018-09-17T23:52:31.024Z,9.27
2018-09-17T23:54:35.210Z,11.30
2018-09-17T23:56:39.400Z,8.07
2018-09-17T23:58:43.624Z,8.93
